Lolo, Montana
Current Conditions -  °F | °C
As of 9:53 PM on Monday 20 Oct 2014 (Local Time) from KMSO Reporting Station
Few Clouds Few Clouds  
Wind Chill: 51°   Ceiling: Unl
Heat Index: 51°   Visibility: 10mi
Dew Point: 40°   Wind: 0mph
Humidity: 66%   Direction: NA
Pressure: 29.72"   Gusts: NA
Location:  46.75°N, 114.09°W
Report Text: KMSO 210353Z AUTO 00000KT 10SM FEW120 11/04 A2972 RMK AO2 SLP071 T01060044
Loading
Personal Weather Stations






























Interactive Weather Map
Tropical Storm Tracking
New forecast layout! Learn more

10-Day Weather Forecast

Advertisements
Track Severe Weather on mobile